createdAt,value
2019-06-01T00:01:08.743Z,14.64
2019-06-01T00:03:38.202Z,14.60
2019-06-01T00:06:05.430Z,14.58
2019-06-01T00:08:32.201Z,14.58
2019-06-01T00:10:58.884Z,14.51
2019-06-01T00:13:25.543Z,14.55
2019-06-01T00:15:52.200Z,14.49
2019-06-01T00:18:18.984Z,14.41
2019-06-01T00:20:45.756Z,14.41
2019-06-01T00:23:12.539Z,14.37
2019-06-01T00:25:40.398Z,14.36
2019-06-01T00:28:07.407Z,14.37
2019-06-01T00:30:34.181Z,14.35
2019-06-01T00:33:00.890Z,14.36
2019-06-01T00:35:27.548Z,14.36
2019-06-01T00:37:54.273Z,14.35
2019-06-01T00:40:21.093Z,14.34
2019-06-01T00:42:48.306Z,14.34
2019-06-01T00:45:15.238Z,14.37
2019-06-01T00:47:42.677Z,14.35
2019-06-01T00:50:09.586Z,14.32
2019-06-01T00:52:36.354Z,14.32
2019-06-01T00:55:04.243Z,14.27
2019-06-01T00:57:30.918Z,14.27
2019-06-01T00:59:57.619Z,14.34
2019-06-01T01:02:24.400Z,14.38
2019-06-01T01:05:12.003Z,14.39
2019-06-01T01:07:38.768Z,14.42
2019-06-01T01:10:05.584Z,14.46
2019-06-01T01:12:34.576Z,14.49
2019-06-01T01:15:01.358Z,14.52
2019-06-01T01:17:28.103Z,14.49
2019-06-01T01:19:55.965Z,14.50
2019-06-01T01:22:22.791Z,14.52
2019-06-01T01:24:50.499Z,14.53
2019-06-01T01:27:17.361Z,14.55
2019-06-01T01:29:44.032Z,14.60
2019-06-01T01:32:10.713Z,14.58
2019-06-01T01:34:37.405Z,14.61
2019-06-01T01:37:04.166Z,14.60
2019-06-01T01:39:30.836Z,14.62
2019-06-01T01:41:58.595Z,14.64
2019-06-01T01:44:25.423Z,14.68
2019-06-01T01:46:52.772Z,14.68
2019-06-01T01:49:19.559Z,14.71
2019-06-01T01:51:46.234Z,14.77
2019-06-01T01:54:12.929Z,14.78
2019-06-01T01:56:48.368Z,14.79
2019-06-01T01:59:17.015Z,14.80
2019-06-01T02:01:43.775Z,14.82
2019-06-01T02:04:11.419Z,14.82
2019-06-01T02:06:39.211Z,14.83
2019-06-01T02:09:07.105Z,14.86
2019-06-01T02:11:33.962Z,14.87
2019-06-01T02:14:02.084Z,14.88
2019-06-01T02:16:29.015Z,14.86
2019-06-01T02:18:57.230Z,14.88
2019-06-01T02:21:24.375Z,14.91
2019-06-01T02:23:51.054Z,14.53
2019-06-01T02:26:17.820Z,14.95
2019-06-01T02:28:44.492Z,14.94
2019-06-01T02:31:11.163Z,14.97
2019-06-01T02:33:37.834Z,14.98
2019-06-01T02:36:05.336Z,14.99
2019-06-01T02:38:32.286Z,15.02
2019-06-01T02:41:01.013Z,15.06
2019-06-01T02:43:27.645Z,15.07
2019-06-01T02:45:56.196Z,15.13
2019-06-01T02:48:23.207Z,15.12
2019-06-01T02:50:49.886Z,15.13
2019-06-01T02:53:16.646Z,15.12
2019-06-01T02:55:43.438Z,15.11
2019-06-01T02:58:10.100Z,15.12
2019-06-01T03:01:21.453Z,15.15
2019-06-01T03:03:49.949Z,15.13
2019-06-01T03:06:16.738Z,15.12
2019-06-01T03:08:44.849Z,15.13
2019-06-01T03:11:13.986Z,15.14
2019-06-01T03:13:41.063Z,15.17
2019-06-01T03:16:09.733Z,15.14
2019-06-01T03:18:37.915Z,15.18
2019-06-01T03:21:06.401Z,15.20
2019-06-01T03:23:34.321Z,15.20
2019-06-01T03:26:02.090Z,15.19
2019-06-01T03:28:30.780Z,15.21
2019-06-01T03:30:57.486Z,15.21
2019-06-01T03:33:24.247Z,15.24
2019-06-01T03:35:51.065Z,15.29
2019-06-01T03:38:17.849Z,15.30
2019-06-01T03:40:45.626Z,15.32
2019-06-01T03:43:12.714Z,15.32
2019-06-01T03:45:39.378Z,15.37
2019-06-01T03:48:06.773Z,15.40
2019-06-01T03:50:33.663Z,15.42
2019-06-01T03:53:01.739Z,15.44
2019-06-01T03:55:28.508Z,15.47
2019-06-01T03:57:55.315Z,15.49
2019-06-01T04:00:22.102Z,15.50
2019-06-01T04:02:48.773Z,15.51
2019-06-01T04:05:16.944Z,15.50
2019-06-01T04:07:43.599Z,15.51
2019-06-01T04:10:11.779Z,15.55
2019-06-01T04:12:38.537Z,15.56
2019-06-01T04:15:10.177Z,15.58
2019-06-01T04:17:33.946Z,15.59
2019-06-01T04:20:02.046Z,15.64
2019-06-01T04:22:28.942Z,15.62
2019-06-01T04:24:56.385Z,15.66
2019-06-01T04:27:23.073Z,15.68
2019-06-01T04:29:49.876Z,15.71
2019-06-01T04:32:16.649Z,15.75
2019-06-01T04:34:44.430Z,15.77
2019-06-01T04:37:11.328Z,15.83
2019-06-01T04:39:38.006Z,15.87
2019-06-01T04:42:05.529Z,15.92
2019-06-01T04:44:32.306Z,15.98
2019-06-01T04:46:59.086Z,16.00
2019-06-01T04:49:25.764Z,16.01
2019-06-01T04:51:52.491Z,16.02
2019-06-01T04:54:19.217Z,16.07
2019-06-01T04:56:46.064Z,16.10
2019-06-01T04:59:13.061Z,16.11
2019-06-01T05:01:39.800Z,16.14
2019-06-01T05:04:07.090Z,16.21
2019-06-01T05:06:34.000Z,16.23
2019-06-01T05:09:00.679Z,16.28
2019-06-01T05:11:27.373Z,16.30
2019-06-01T05:13:54.034Z,16.35
2019-06-01T05:16:20.815Z,16.39
2019-06-01T05:18:47.542Z,16.40
2019-06-01T05:21:17.432Z,16.40
2019-06-01T05:23:44.125Z,16.42
2019-06-01T05:26:10.970Z,16.46
2019-06-01T05:28:37.723Z,16.49
2019-06-01T05:31:04.470Z,16.51
2019-06-01T05:33:37.484Z,16.51
2019-06-01T05:35:59.818Z,16.54
2019-06-01T05:38:26.724Z,16.57
2019-06-01T05:40:54.404Z,16.58
2019-06-01T05:43:21.447Z,16.58
2019-06-01T05:45:48.303Z,16.62
2019-06-01T05:48:20.737Z,16.64
2019-06-01T05:50:43.685Z,16.64
2019-06-01T05:53:10.496Z,16.65
2019-06-01T05:55:37.193Z,16.68
2019-06-01T05:58:04.073Z,16.68
2019-06-01T06:00:41.218Z,16.70
2019-06-01T06:03:08.013Z,16.71
2019-06-01T06:05:34.689Z,16.71
2019-06-01T06:08:01.519Z,16.73
2019-06-01T06:10:28.283Z,16.76
2019-06-01T06:12:54.958Z,16.78
2019-06-01T06:15:21.901Z,16.80
2019-06-01T06:17:48.530Z,16.85
2019-06-01T06:20:15.979Z,16.90
2019-06-01T06:22:42.798Z,16.96
2019-06-01T06:25:09.532Z,17.07
2019-06-01T06:27:36.238Z,17.14
2019-06-01T06:30:04.261Z,17.17
2019-06-01T06:32:30.994Z,17.20
2019-06-01T06:34:57.653Z,17.24
2019-06-01T06:37:24.342Z,17.35
2019-06-01T06:39:51.130Z,17.45
2019-06-01T06:42:18.614Z,17.53
2019-06-01T06:44:45.478Z,17.66
2019-06-01T06:47:12.520Z,17.73
2019-06-01T06:49:39.231Z,17.83
2019-06-01T06:52:06.018Z,17.78
2019-06-01T06:54:32.702Z,17.83
2019-06-01T06:56:59.419Z,17.95
2019-06-01T06:59:26.737Z,18.17
2019-06-01T07:01:53.624Z,18.47
2019-06-01T07:04:21.391Z,18.48
2019-06-01T07:06:48.440Z,18.35
2019-06-01T07:09:15.250Z,18.45
2019-06-01T07:11:42.064Z,18.35
2019-06-01T07:14:08.835Z,18.31
2019-06-01T07:16:35.525Z,18.30
2019-06-01T07:19:02.316Z,18.11
2019-06-01T07:21:30.283Z,17.98
2019-06-01T07:23:56.990Z,17.93
2019-06-01T07:26:24.120Z,18.17
2019-06-01T07:28:50.880Z,18.37
2019-06-01T07:31:17.559Z,18.46
2019-06-01T07:33:44.292Z,18.52
2019-06-01T07:36:12.067Z,18.62
2019-06-01T07:38:38.753Z,18.65
2019-06-01T07:41:05.436Z,18.80
2019-06-01T07:43:33.164Z,18.89
2019-06-01T07:46:00.112Z,18.94
2019-06-01T07:48:27.201Z,18.85
2019-06-01T07:50:53.888Z,18.75
2019-06-01T07:53:20.997Z,18.97
2019-06-01T07:55:48.368Z,19.05
2019-06-01T07:58:16.431Z,19.07
2019-06-01T08:00:43.210Z,19.08
2019-06-01T08:03:09.911Z,19.21
2019-06-01T08:05:36.714Z,19.37
2019-06-01T08:08:03.497Z,19.55
2019-06-01T08:10:31.745Z,19.67
2019-06-01T08:12:58.810Z,19.40
2019-06-01T08:15:25.802Z,19.23
2019-06-01T08:17:52.593Z,19.19
2019-06-01T08:20:19.492Z,19.08
2019-06-01T08:22:46.458Z,19.13
2019-06-01T08:25:13.277Z,19.23
2019-06-01T08:27:40.376Z,19.42
2019-06-01T08:30:07.666Z,19.56
2019-06-01T08:32:34.494Z,19.35
2019-06-01T08:35:08.753Z,19.36
2019-06-01T08:37:31.369Z,19.53
2019-06-01T08:39:59.429Z,19.57
2019-06-01T08:42:27.373Z,19.15
2019-06-01T08:44:54.153Z,19.30
2019-06-01T08:47:20.950Z,19.46
2019-06-01T08:49:47.736Z,19.48
2019-06-01T08:52:14.450Z,19.47
2019-06-01T08:54:41.225Z,19.49
2019-06-01T08:57:07.903Z,19.74
2019-06-01T08:59:34.708Z,20.08
2019-06-01T09:02:01.500Z,20.29
2019-06-01T09:04:28.848Z,20.26
2019-06-01T09:06:55.709Z,20.41
2019-06-01T09:09:22.601Z,20.56
2019-06-01T09:11:49.309Z,20.81
2019-06-01T09:14:15.985Z,21.01
2019-06-01T09:16:42.797Z,21.21
2019-06-01T09:19:11.343Z,21.34
2019-06-01T09:21:38.092Z,21.39
2019-06-01T09:24:04.963Z,21.47
2019-06-01T09:26:32.021Z,20.97
2019-06-01T09:28:58.846Z,20.88
2019-06-01T09:31:26.258Z,21.20
2019-06-01T09:33:53.040Z,20.78
2019-06-01T09:36:19.759Z,21.08
2019-06-01T09:38:46.536Z,21.31
2019-06-01T09:41:13.447Z,20.99
2019-06-01T09:43:40.213Z,21.29
2019-06-01T09:46:06.978Z,20.94
2019-06-01T09:48:33.670Z,20.94
2019-06-01T09:51:00.470Z,21.12
2019-06-01T09:53:28.909Z,21.29
2019-06-01T09:55:55.847Z,21.34
2019-06-01T09:58:22.541Z,21.44
2019-06-01T10:00:49.318Z,21.47
2019-06-01T10:03:16.122Z,21.12
2019-06-01T10:05:42.926Z,21.43
2019-06-01T10:08:09.611Z,21.77
2019-06-01T10:10:36.295Z,21.55
2019-06-01T10:13:03.245Z,21.88
2019-06-01T10:15:30.187Z,21.62
2019-06-01T10:17:56.910Z,21.34
2019-06-01T10:20:23.638Z,21.55
2019-06-01T10:22:50.311Z,21.74
2019-06-01T10:25:17.090Z,21.60
2019-06-01T10:27:43.773Z,21.55
2019-06-01T10:30:10.987Z,21.29
2019-06-01T10:32:38.131Z,21.38
2019-06-01T10:35:05.302Z,21.37
2019-06-01T10:37:33.343Z,21.44
2019-06-01T10:40:00.331Z,21.93
2019-06-01T10:42:27.033Z,21.64
2019-06-01T10:44:53.724Z,22.13
2019-06-01T10:47:20.546Z,22.19
2019-06-01T10:49:47.234Z,22.42
2019-06-01T10:52:14.899Z,22.22
2019-06-01T10:54:42.509Z,22.05
2019-06-01T10:57:09.479Z,22.29
2019-06-01T10:59:36.332Z,22.22
2019-06-01T11:02:03.146Z,22.13
2019-06-01T11:04:29.923Z,22.20
2019-06-01T11:06:56.676Z,22.57
2019-06-01T11:09:23.436Z,22.81
2019-06-01T11:11:50.315Z,22.47
2019-06-01T11:14:17.372Z,22.72
2019-06-01T11:16:45.191Z,23.19
2019-06-01T11:19:12.271Z,22.74
2019-06-01T11:21:39.544Z,22.89
2019-06-01T11:24:06.615Z,22.99
2019-06-01T11:26:33.749Z,23.37
2019-06-01T11:29:00.543Z,23.53
2019-06-01T11:31:27.766Z,22.84
2019-06-01T11:33:55.048Z,23.10
2019-06-01T11:36:21.830Z,22.58
2019-06-01T11:38:48.715Z,22.83
2019-06-01T11:41:18.486Z,23.04
2019-06-01T11:43:45.870Z,22.85
2019-06-01T11:46:12.982Z,22.77
2019-06-01T11:48:41.422Z,22.59
2019-06-01T11:51:08.331Z,22.50
2019-06-01T11:53:35.196Z,22.78
2019-06-01T11:56:02.071Z,22.87
2019-06-01T11:58:28.763Z,22.92
2019-06-01T12:00:55.755Z,23.20
2019-06-01T12:03:22.570Z,23.03
2019-06-01T12:05:49.596Z,23.07
2019-06-01T12:08:16.504Z,23.40
2019-06-01T12:10:43.232Z,23.06
2019-06-01T12:13:10.380Z,22.93
2019-06-01T12:15:38.304Z,23.27
2019-06-01T12:18:05.366Z,23.68
2019-06-01T12:20:32.362Z,23.88
2019-06-01T12:22:59.549Z,24.13
2019-06-01T12:25:26.263Z,23.88
2019-06-01T12:27:53.058Z,23.83
2019-06-01T12:30:20.223Z,24.27
2019-06-01T12:32:48.736Z,24.70
2019-06-01T12:35:15.787Z,24.70
2019-06-01T12:37:59.675Z,24.67
2019-06-01T12:40:12.952Z,24.93
2019-06-01T12:42:39.905Z,24.79
2019-06-01T12:45:07.830Z,24.97
2019-06-01T12:47:34.566Z,25.28
2019-06-01T12:50:01.700Z,24.43
2019-06-01T12:52:28.325Z,23.63
2019-06-01T12:54:55.203Z,23.91
2019-06-01T12:57:22.225Z,23.77
2019-06-01T12:59:49.243Z,24.39
2019-06-01T13:02:15.913Z,24.76
2019-06-01T13:04:42.914Z,24.40
2019-06-01T13:07:09.666Z,24.62
2019-06-01T13:09:36.342Z,24.74
2019-06-01T13:12:03.265Z,24.59
2019-06-01T13:14:29.956Z,25.00
2019-06-01T13:17:06.745Z,25.22
2019-06-01T13:19:26.181Z,25.35
2019-06-01T13:21:52.897Z,25.48
2019-06-01T13:24:19.678Z,25.27
2019-06-01T13:26:47.833Z,25.27
2019-06-01T13:29:15.335Z,25.04
2019-06-01T13:31:42.194Z,25.55
2019-06-01T13:34:09.339Z,25.47
2019-06-01T13:36:36.007Z,25.59
2019-06-01T13:39:05.858Z,25.61
2019-06-01T13:41:32.639Z,26.15
2019-06-01T13:43:59.337Z,26.31
2019-06-01T13:46:26.002Z,26.10
2019-06-01T13:48:54.194Z,25.52
2019-06-01T13:51:21.297Z,25.22
2019-06-01T13:53:48.545Z,25.74
2019-06-01T13:56:17.602Z,25.80
2019-06-01T13:58:44.665Z,25.96
2019-06-01T14:01:11.484Z,26.25
2019-06-01T14:03:39.038Z,26.13
2019-06-01T14:06:07.275Z,25.79
2019-06-01T14:08:34.101Z,26.02
2019-06-01T14:11:00.792Z,26.30
2019-06-01T14:13:28.834Z,26.30
2019-06-01T14:15:55.722Z,25.97
2019-06-01T14:18:22.569Z,26.16
2019-06-01T14:20:49.712Z,26.18
2019-06-01T14:23:18.063Z,25.63
2019-06-01T14:25:45.862Z,25.87
2019-06-01T14:28:13.112Z,25.83
2019-06-01T14:30:39.783Z,26.38
2019-06-01T14:33:08.425Z,26.21
2019-06-01T14:35:36.010Z,26.16
2019-06-01T14:38:03.202Z,25.58
2019-06-01T14:40:30.161Z,25.93
2019-06-01T14:42:58.441Z,25.68
2019-06-01T14:45:25.375Z,25.31
2019-06-01T14:47:53.461Z,25.07
2019-06-01T14:50:20.431Z,25.08
2019-06-01T14:52:47.642Z,25.12
2019-06-01T14:55:14.612Z,24.62
2019-06-01T14:57:41.319Z,24.76
2019-06-01T15:00:08.739Z,24.44
2019-06-01T15:02:35.524Z,24.55
2019-06-01T15:05:02.697Z,24.38
2019-06-01T15:07:29.383Z,24.11
2019-06-01T15:09:56.391Z,24.17
2019-06-01T15:12:26.384Z,23.93
2019-06-01T15:14:53.362Z,23.50
2019-06-01T15:17:20.809Z,23.36
2019-06-01T15:19:48.046Z,23.44
2019-06-01T15:22:15.110Z,23.39
2019-06-01T15:24:43.028Z,23.50
2019-06-01T15:27:09.725Z,23.37
2019-06-01T15:29:38.606Z,23.30
2019-06-01T15:32:05.919Z,23.13
2019-06-01T15:34:32.855Z,23.08
2019-06-01T15:36:59.750Z,22.98
2019-06-01T15:39:26.503Z,22.86
2019-06-01T15:41:53.511Z,22.92
2019-06-01T15:44:20.340Z,22.86
2019-06-01T15:46:47.141Z,22.84
2019-06-01T15:49:13.930Z,22.75
2019-06-01T15:51:41.409Z,22.80
2019-06-01T15:54:08.094Z,23.08
2019-06-01T15:56:34.797Z,23.13
2019-06-01T15:59:02.752Z,23.04
2019-06-01T16:01:30.018Z,23.06
2019-06-01T16:03:57.295Z,23.18
2019-06-01T16:06:24.471Z,23.18
2019-06-01T16:08:51.521Z,23.23
2019-06-01T16:11:18.316Z,23.05
2019-06-01T16:13:45.102Z,22.83
2019-06-01T16:16:11.898Z,22.79
2019-06-01T16:18:39.080Z,22.60
2019-06-01T16:21:06.254Z,22.48
2019-06-01T16:23:48.735Z,22.40
2019-06-01T16:26:13.247Z,22.26
2019-06-01T16:28:31.989Z,22.28
2019-06-01T16:30:58.786Z,22.12
2019-06-01T16:33:25.679Z,22.15
2019-06-01T16:35:52.441Z,22.06
2019-06-01T16:38:20.342Z,21.78
2019-06-01T16:40:47.155Z,21.56
2019-06-01T16:43:13.934Z,21.60
2019-06-01T16:45:40.731Z,21.64
2019-06-01T16:48:07.683Z,21.60
2019-06-01T16:50:34.464Z,21.42
2019-06-01T16:53:02.105Z,21.43
2019-06-01T16:55:31.467Z,21.31
2019-06-01T16:57:58.734Z,21.25
2019-06-01T17:00:25.610Z,21.28
2019-06-01T17:02:52.404Z,21.19
2019-06-01T17:05:19.226Z,21.16
2019-06-01T17:07:46.139Z,21.08
2019-06-01T17:10:25.736Z,21.00
2019-06-01T17:12:43.907Z,20.96
2019-06-01T17:15:11.177Z,21.01
2019-06-01T17:17:38.019Z,20.99
2019-06-01T17:20:07.355Z,20.83
2019-06-01T17:22:34.423Z,20.76
2019-06-01T17:25:01.810Z,20.56
2019-06-01T17:27:28.743Z,20.60
2019-06-01T17:29:55.805Z,20.62
2019-06-01T17:32:24.996Z,20.61
2019-06-01T17:34:52.001Z,20.58
2019-06-01T17:37:19.240Z,20.39
2019-06-01T17:39:47.607Z,20.24
2019-06-01T17:42:14.593Z,20.26
2019-06-01T17:44:41.294Z,20.13
2019-06-01T17:47:08.564Z,20.03
2019-06-01T17:49:35.347Z,19.99
2019-06-01T17:52:03.574Z,20.00
2019-06-01T17:54:30.619Z,20.06
2019-06-01T17:56:58.421Z,20.10
2019-06-01T17:59:25.211Z,20.09
2019-06-01T18:01:52.003Z,19.96
2019-06-01T18:04:18.817Z,19.85
2019-06-01T18:06:45.649Z,19.79
2019-06-01T18:09:12.515Z,19.69
2019-06-01T18:11:39.388Z,19.63
2019-06-01T18:14:08.229Z,19.51
2019-06-01T18:16:35.133Z,19.40
2019-06-01T18:19:02.176Z,19.25
2019-06-01T18:21:28.910Z,19.15
2019-06-01T18:23:55.695Z,19.21
2019-06-01T18:26:22.511Z,19.17
2019-06-01T18:28:49.341Z,19.14
2019-06-01T18:31:16.061Z,19.12
2019-06-01T18:33:43.123Z,19.11
2019-06-01T18:36:09.887Z,19.08
2019-06-01T18:38:36.980Z,18.99
2019-06-01T18:41:12.872Z,18.87
2019-06-01T18:43:32.497Z,18.88
2019-06-01T18:45:59.325Z,18.80
2019-06-01T18:48:27.087Z,18.82
2019-06-01T18:50:53.941Z,18.86
2019-06-01T18:53:20.764Z,18.78
2019-06-01T18:55:47.558Z,18.65
2019-06-01T18:58:14.880Z,18.48
2019-06-01T19:00:42.349Z,18.48
2019-06-01T19:03:09.125Z,18.56
2019-06-01T19:05:35.919Z,18.36
2019-06-01T19:08:02.630Z,18.31
2019-06-01T19:10:30.419Z,18.45
2019-06-01T19:12:57.083Z,18.22
2019-06-01T19:15:28.507Z,18.19
2019-06-01T19:17:52.821Z,18.17
2019-06-01T19:20:19.676Z,18.10
2019-06-01T19:22:46.707Z,17.99
2019-06-01T19:25:15.016Z,17.96
2019-06-01T19:27:41.864Z,17.97
2019-06-01T19:30:10.838Z,18.08
2019-06-01T19:32:37.907Z,18.16
2019-06-01T19:35:05.114Z,17.96
2019-06-01T19:37:32.491Z,18.16
2019-06-01T19:40:00.106Z,18.11
2019-06-01T19:42:27.042Z,17.94
2019-06-01T19:44:53.951Z,17.85
2019-06-01T19:47:20.729Z,17.75
2019-06-01T19:49:47.681Z,17.72
2019-06-01T19:52:14.849Z,17.63
2019-06-01T19:54:41.723Z,17.48
2019-06-01T19:57:09.713Z,17.22
2019-06-01T19:59:36.704Z,17.18
2019-06-01T20:02:03.497Z,17.23
2019-06-01T20:04:30.306Z,17.04
2019-06-01T20:06:57.138Z,17.02
2019-06-01T20:09:23.823Z,16.92
2019-06-01T20:12:01.302Z,16.92
2019-06-01T20:14:20.766Z,16.97
2019-06-01T20:16:47.657Z,16.89
2019-06-01T20:19:15.606Z,16.86
2019-06-01T20:21:42.852Z,16.77
2019-06-01T20:24:09.554Z,16.70
2019-06-01T20:26:41.993Z,16.68
2019-06-01T20:29:06.837Z,16.62
2019-06-01T20:31:33.888Z,16.52
2019-06-01T20:34:00.819Z,16.59
2019-06-01T20:36:27.917Z,16.72
2019-06-01T20:38:54.583Z,16.55
2019-06-01T20:41:22.571Z,16.46
2019-06-01T20:43:49.667Z,16.19
2019-06-01T20:46:16.774Z,16.12
2019-06-01T20:48:43.612Z,16.23
2019-06-01T20:51:10.524Z,16.22
2019-06-01T20:53:37.333Z,16.32
2019-06-01T20:56:04.100Z,16.22
2019-06-01T20:58:30.908Z,16.12
2019-06-01T21:00:57.572Z,16.01
2019-06-01T21:03:24.589Z,15.78
2019-06-01T21:05:51.240Z,15.75
2019-06-01T21:08:18.159Z,15.65
2019-06-01T21:10:44.887Z,15.71
2019-06-01T21:13:11.669Z,15.78
2019-06-01T21:15:38.530Z,15.90
2019-06-01T21:18:05.346Z,15.93
2019-06-01T21:20:32.212Z,15.90
2019-06-01T21:22:58.897Z,15.85
2019-06-01T21:25:25.682Z,15.81
2019-06-01T21:27:52.457Z,15.79
2019-06-01T21:30:22.335Z,15.72
2019-06-01T21:32:47.949Z,15.74
2019-06-01T21:35:15.250Z,15.67
2019-06-01T21:37:41.978Z,15.65
2019-06-01T21:40:09.070Z,15.44
2019-06-01T21:42:38.406Z,15.37
2019-06-01T21:45:04.634Z,15.32
2019-06-01T21:47:32.907Z,15.38
2019-06-01T21:49:59.664Z,15.38
2019-06-01T21:52:26.494Z,15.41
2019-06-01T21:54:53.229Z,15.33
2019-06-01T21:57:20.215Z,15.19
2019-06-01T21:59:46.942Z,15.16
2019-06-01T22:02:13.863Z,15.19
2019-06-01T22:04:40.627Z,15.18
2019-06-01T22:07:07.312Z,15.07
2019-06-01T22:09:35.017Z,15.06
2019-06-01T22:12:01.702Z,15.07
2019-06-01T22:14:28.504Z,14.88
2019-06-01T22:16:55.190Z,14.87
2019-06-01T22:19:21.841Z,14.95
2019-06-01T22:21:48.622Z,14.91
2019-06-01T22:24:15.311Z,14.86
2019-06-01T22:26:41.986Z,14.46
2019-06-01T22:29:08.709Z,14.82
2019-06-01T22:31:35.379Z,14.71
2019-06-01T22:34:02.057Z,14.77
2019-06-01T22:36:29.367Z,14.97
2019-06-01T22:38:56.104Z,15.07
2019-06-01T22:41:23.845Z,14.90
2019-06-01T22:43:50.668Z,14.86
2019-06-01T22:46:17.330Z,14.80
2019-06-01T22:48:44.123Z,14.72
2019-06-01T22:51:10.781Z,14.60
2019-06-01T22:53:37.547Z,14.58
2019-06-01T22:56:04.348Z,14.43
2019-06-01T22:58:31.610Z,14.50
2019-06-01T23:00:58.625Z,14.64
2019-06-01T23:03:25.786Z,14.56
2019-06-01T23:05:52.603Z,14.50
2019-06-01T23:08:19.261Z,14.61
2019-06-01T23:10:46.144Z,14.65
2019-06-01T23:13:12.922Z,14.58
2019-06-01T23:15:39.687Z,14.41
2019-06-01T23:18:06.457Z,14.34
2019-06-01T23:20:33.145Z,14.34
2019-06-01T23:22:59.814Z,14.23
2019-06-01T23:25:28.593Z,14.19
2019-06-01T23:27:55.445Z,15.52
2019-06-01T23:30:22.215Z,15.39
2019-06-01T23:32:49.040Z,14.67
2019-06-01T23:35:15.803Z,14.77
2019-06-01T23:37:43.473Z,14.56
2019-06-01T23:40:10.548Z,14.42
2019-06-01T23:42:37.218Z,14.56
2019-06-01T23:45:04.799Z,14.86
2019-06-01T23:47:31.466Z,15.01
2019-06-01T23:49:58.135Z,14.58
2019-06-01T23:52:25.543Z,14.61
2019-06-01T23:54:52.415Z,14.60
2019-06-01T23:57:19.174Z,14.99
2019-06-01T23:59:45.854Z,15.31
